AirNav   Get $300 off a Bose A20 Aviation Headset
 
 997 users online  

WS39 Pinewood Air Park
Goodnow, Wisconsin, USA

GOING TO GOODNOW?


FAA INFORMATION EFFECTIVE 12 SEPTEMBER 2019

Location

FAA Identifier: WS39
Lat/Long: 45-41-57.8440N 089-39-44.5090W
45-41.964067N 089-39.741817W
45.6994011,-89.6623636
(estimated)
Elevation: 1560 ft. / 475 m (estimated)
Variation: 00W (1985)
From city: 1 mile NE of GOODNOW, WI
Time zone: UTC -5 (UTC -6 during Standard Time)
Zip code: 54529

Airport Operations

Airport use: Private use. Permission required prior to landing
Activation date: 05/1987
Control tower: no
ARTCC: MINNEAPOLIS CENTER
FSS: GREEN BAY FLIGHT SERVICE STATION
Attendance: UNATNDD
Wind indicator: yes
Segmented circle: no

Airport Communications

WX ASOS at RHI (9 nm SE): 126.825 (715-362-7980)
WX AWOS-3 at ARV (14 nm N): 121.125 (715-356-2417)
WX AWOS-3 at TKV (15 nm SW): 118.250 (715-453-5716)

Nearby radio navigation aids

VOR radial/distance  VOR name  Freq  Var
RHIr293/9.4RHINELANDER VOR/DME109.2002E

 
NDB name  Hdg/Dist  Freq  Var  ID
ARSHA340/4.727203WRH .-. ....
DOUGY163/8.623602WDO -.. ---
ARBOR VITAE171/13.922102WARV .- .-. ...-
WATERSMEET206/38.840702WRXW .-. -..- .--

Airport Services

Runway Information

Runway 15/33

Dimensions: 2933 x 70 ft. / 894 x 21 m
Surface: turf
RUNWAY 15  RUNWAY 33
Traffic pattern: leftleft
Displaced threshold: 800 ft.no

Airport Ownership and Management from official FAA records

Ownership: Privately-owned
Owner: A. H. BROMANN
4726 LAKEWOOD RD
GOODNOW, WI 54529
Phone 715-282-5501
Manager: A. H. BROMANN
4726 LAKEWOOD RD
GOODNOW, WI 54529
Phone 715-282-5501

Airport Operational Statistics

Aircraft based on the field: 2
Single engine airplanes: 2
    

Additional Remarks

AIRPORT PLOWED WINTER MONTHS.
FOR CD CTC MINNEAPOLIS ARTCC AT 651-463-5588.

Instrument Procedures

There are no published instrument procedures at WS39.

Some nearby airports with instrument procedures:

KRHI - Rhinelander-Oneida County Airport (9 nm SE)
KARV - Lakeland Airport/Noble F. Lee Memorial Field (14 nm N)
KTKV - Tomahawk Regional Airport (15 nm SW)
KEGV - Eagle River Union Airport (22 nm NE)
D25 - Manitowish Waters Airport (27 nm N)
 
Loc | Ops | Rwys | IFR | FBO | Links
Com | Nav | Svcs | Stats | Notes
Area around WS39 (Pinewood Air Park)
 
Road maps at: MapQuest Bing Google
 
Aerial photo
No photo
 
Sectional chart

 
Airport distance calculator
Flying to Pinewood Air Park? Find the distance to fly.

From to WS39

Sunrise and sunset
Times for 15-Sep-2019
 Local
(UTC-5)
 Zulu
(UTC)
Morning civil twilight06:0811:08
Sunrise06:3811:38
Sunset19:1000:10
Evening civil twilight19:4000:40

Current date and time
Zulu (UTC)  15-Sep-2019 15:25:37
Local (UTC-5)  15-Sep-2019 10:25:37
 
METAR
KRHI 
8nm SE 
151453Z AUTO 12004KT 10SM OVC004 16/14 A3005 RMK AO2 SLP175 T01560139 53003
KARV 
13nm N 
151455Z AUTO 14004KT 10SM OVC005 16/13 A3003 RMK AO2 T01550127
KTKV 
15nm SW 
151455Z AUTO 00000KT 10SM OVC005 16/16 A3004 RMK AO2 T01630155
TAF
KRHI 
8nm SE 
151404Z 1514/1612 12004KT P6SM BKN004 FM151700 26005KT P6SM BKN008 FM151900 29006KT P6SM BKN015 FM160200 VRB03KT 3SM BR BKN012 TEMPO 1604/1608 1/2SM FG OVC003 FM160800 VRB02KT 1SM BR BKN004 TEMPO 1608/1612 1/4SM FG BKN001
NOTAMs
Click for the latest NOTAMs
NOTAMs are issued by the DoD/FAA and will open in a separate window not controlled by AirNav.

 

 
 

Would you like to see your business listed on this page?

 If your business provides an interesting product or service to pilots, flight crews, aircraft, or users of the Pinewood Air Park, you should consider listing it here.  To start the listing process, click on the button below
 
Add a business
 

Other Pages about Pinewood Air Park

Update a link
 
Copyright © AirNav, LLC. All rights reserved. Privacy Policy  Contact